Time;durP1;ratioP1;P1;durP2;ratioP2;P2;SDS_P1;SDS_P2;PMS_P1;PMS_P2;Temp;Humidity;BMP_temperature;BMP_pressure;BME280_temperature;BME280_humidity;BME280_pressure;Samples;Min_cycle;Max_cycle;Signal;HPM_P1;HPM_P2
2021/12/15 00:00:40;;;;;;;19.10;13.00;;;6.80;99.90;;;7.60;100.00;-19985.44;5093627;28;20212;-61
2021/12/15 00:03:09;;;;;;;16.73;12.73;;;6.80;99.90;;;7.47;100.00;-19981.34;5093572;28;20186;-60
2021/12/15 00:05:40;;;;;;;16.73;12.30;;;6.80;99.90;;;7.55;100.00;-19983.75;5093471;28;20228;-60
2021/12/15 00:08:11;;;;;;;19.03;13.10;;;6.80;99.90;;;7.60;100.00;-19985.44;5093551;28;20624;-59
2021/12/15 00:10:42;;;;;;;15.87;12.13;;;6.80;99.90;;;7.67;100.00;-19987.84;5093245;28;20216;-59
2021/12/15 00:13:14;;;;;;;18.70;12.87;;;6.80;99.90;;;7.59;100.00;-19985.09;5093704;28;20212;-59
2021/12/15 00:15:44;;;;;;;16.57;12.70;;;6.80;99.90;;;7.68;100.00;-19988.19;5093249;28;20188;-60
2021/12/15 00:18:13;;;;;;;19.33;13.17;;;6.80;99.90;;;7.60;100.00;-19985.44;5093400;28;20667;-60
2021/12/15 00:20:43;;;;;;;18.10;12.40;;;6.80;99.90;;;7.57;100.00;-19984.59;5093206;28;20652;-60
2021/12/15 00:23:12;;;;;;;21.17;14.70;;;6.80;99.90;;;7.77;100.00;-19991.25;5093008;28;20315;-60
2021/12/15 00:25:44;;;;;;;16.63;12.80;;;6.80;99.90;;;7.55;100.00;-19983.91;5093253;28;20196;-60
2021/12/15 00:28:14;;;;;;;21.33;14.40;;;6.80;99.90;;;7.63;100.00;-19986.66;5093204;28;20232;-60
2021/12/15 00:30:43;;;;;;;19.13;13.67;;;6.90;99.90;;;7.63;100.00;-19986.66;5093116;28;20220;-60
2021/12/15 00:33:12;;;;;;;18.90;13.43;;;6.80;99.90;;;7.63;100.00;-19986.66;5093073;28;20231;-59
2021/12/15 00:35:41;;;;;;;21.13;14.40;;;6.80;99.90;;;7.60;100.00;-19985.44;5093333;28;20599;-61
2021/12/15 00:38:10;;;;;;;18.40;13.07;;;6.80;99.90;;;7.47;100.00;-19981.19;5093408;28;20204;-60
2021/12/15 00:40:40;;;;;;;17.90;13.93;;;6.80;99.90;;;7.44;100.00;-19980.31;5092796;28;20690;-60
2021/12/15 00:43:09;;;;;;;20.60;13.30;;;6.70;99.90;;;7.40;100.00;-19978.78;5093294;28;20224;-61
2021/12/15 00:45:39;;;;;;;19.83;13.13;;;6.70;99.90;;;7.49;100.00;-19981.88;5093028;28;20286;-62
2021/12/15 00:48:07;;;;;;;18.20;12.83;;;6.80;99.90;;;7.54;100.00;-19983.56;5093170;28;21067;-62
2021/12/15 00:50:37;;;;;;;18.53;13.17;;;6.80;99.90;;;7.63;100.00;-19986.47;5092785;28;20694;-60
2021/12/15 00:53:07;;;;;;;17.80;12.20;;;6.80;99.90;;;7.54;100.00;-19983.41;5093203;28;20283;-60
2021/12/15 00:55:37;;;;;;;17.40;12.37;;;6.80;99.90;;;7.70;100.00;-19988.88;5092603;28;20691;-60
2021/12/15 00:58:08;;;;;;;16.57;12.33;;;6.80;99.90;;;7.74;100.00;-19990.41;5092453;28;20283;-60
2021/12/15 01:00:42;;;;;;;17.87;12.30;;;6.80;99.90;;;7.71;100.00;-19989.22;5092794;28;20191;-60
2021/12/15 01:03:12;;;;;;;16.77;12.67;;;6.90;99.90;;;7.81;100.00;-19992.63;5092757;28;20203;-60
2021/12/15 01:05:45;;;;;;;17.77;11.87;;;6.90;99.90;;;7.77;100.00;-19991.25;5092535;28;20196;-60
2021/12/15 01:08:20;;;;;;;17.37;11.83;;;6.90;99.90;;;7.80;100.00;-19992.47;5092793;28;20188;-59
2021/12/15 01:11:03;;;;;;;18.07;12.43;;;7.00;99.90;;;7.70;100.00;-19989.03;5092080;28;20222;-60
2021/12/15 01:21:58;;;;;;;17.07;12.00;;;7.00;99.90;;;8.12;100.00;-20003.38;5092460;28;20214;-60
2021/12/15 01:24:27;;;;;;;15.40;11.53;;;7.00;99.90;;;7.92;100.00;-19996.38;5092135;28;20208;-60
2021/12/15 01:26:56;;;;;;;15.30;11.27;;;7.10;99.90;;;7.84;100.00;-19993.81;5092297;28;20206;-60
2021/12/15 01:29:24;;;;;;;14.67;11.17;;;7.00;99.90;;;7.77;100.00;-19991.44;5092243;28;20758;-61
2021/12/15 01:31:54;;;;;;;17.30;11.63;;;7.00;99.90;;;7.77;100.00;-19991.25;5092016;28;20281;-60
2021/12/15 01:34:23;;;;;;;16.13;11.40;;;7.00;99.90;;;7.68;100.00;-19988.19;5092357;28;20799;-60
2021/12/15 01:36:51;;;;;;;14.90;11.20;;;7.00;99.90;;;7.76;100.00;-19990.91;5092325;28;20199;-60
2021/12/15 01:39:20;;;;;;;15.87;11.57;;;7.00;99.90;;;7.96;100.00;-19997.94;5092408;28;20206;-59
2021/12/15 01:41:48;;;;;;;16.00;12.00;;;7.10;99.90;;;7.87;100.00;-19994.69;5091923;28;20562;-61
2021/12/15 01:47:04;;;;;;;17.27;12.17;;;7.00;99.90;;;7.76;100.00;-19990.91;5091261;28;20283;-59
2021/12/15 01:49:39;;;;;;;18.93;13.73;;;7.00;99.90;;;7.73;100.00;-19989.91;5092302;28;20231;-61
2021/12/15 01:52:15;;;;;;;16.17;12.20;;;7.00;99.90;;;7.71;100.00;-19989.38;5092335;28;20184;-59
2021/12/15 01:54:53;;;;;;;15.67;11.93;;;7.00;99.90;;;8.01;100.00;-19999.63;5092312;28;20267;-60
2021/12/15 01:57:24;;;;;;;14.80;10.63;;;7.00;99.90;;;8.12;100.00;-20003.22;5086164;28;20189;-60
2021/12/15 01:59:56;;;;;;;14.93;10.60;;;7.10;99.90;;;7.85;100.00;-19994.16;5071928;28;20281;-60
2021/12/15 02:02:27;;;;;;;15.13;10.87;;;7.10;99.90;;;7.78;100.00;-19991.78;5071826;28;20204;-60
2021/12/15 02:04:56;;;;;;;15.20;10.90;;;7.00;99.90;;;7.66;100.00;-19987.66;5072646;28;20264;-61
2021/12/15 02:07:25;;;;;;;12.87;9.93;;;7.00;99.90;;;7.88;100.00;-19995.03;5091794;28;20682;-60
2021/12/15 02:10:04;;;;;;;15.17;10.80;;;7.00;99.90;;;7.92;100.00;-19996.56;5093499;28;20200;-61
2021/12/15 02:12:53;;;;;;;14.97;10.33;;;7.10;99.90;;;7.84;100.00;-19993.81;5095877;28;20284;-61
2021/12/15 02:15:27;;;;;;;14.70;10.20;;;7.00;99.90;;;7.84;100.00;-19993.81;5095995;28;20196;-61
2021/12/15 02:17:57;;;;;;;13.20;10.53;;;7.10;99.90;;;7.88;100.00;-19995.03;5095763;28;20275;-60
2021/12/15 02:20:31;;;;;;;14.00;10.13;;;7.00;99.90;;;7.73;100.00;-19989.91;5095544;28;20194;-60
2021/12/15 02:22:59;;;;;;;14.37;10.43;;;7.00;99.90;;;7.83;100.00;-19993.31;5095809;28;20222;-60
2021/12/15 02:25:28;;;;;;;13.73;10.13;;;7.00;99.90;;;7.85;100.00;-19994.00;5095435;28;20207;-61
2021/12/15 02:27:56;;;;;;;14.20;9.90;;;7.00;99.90;;;7.87;100.00;-19994.69;5095714;28;20238;-60
2021/12/15 02:30:44;;;;;;;14.83;10.50;;;7.00;99.90;;;8.06;100.00;-20001.34;5095434;28;20204;-60
2021/12/15 02:33:41;;;;;;;14.17;9.97;;;7.00;99.90;;;7.83;100.00;-19993.31;5095178;28;20575;-60
2021/12/15 02:38:59;;;;;;;14.10;10.87;;;7.00;99.90;;;7.78;100.00;-19991.59;5095566;28;20631;-60
2021/12/15 02:41:30;;;;;;;14.90;10.33;;;6.90;99.90;;;7.89;100.00;-19995.34;5095369;28;20643;-61
2021/12/15 02:44:02;;;;;;;16.60;11.00;;;7.00;99.90;;;7.68;100.00;-19988.19;5095029;28;20300;-60
2021/12/15 02:46:35;;;;;;;16.20;11.83;;;6.90;99.90;;;7.89;100.00;-19995.53;5095258;28;20184;-59
2021/12/15 02:49:08;;;;;;;14.77;10.77;;;6.90;99.90;;;7.87;100.00;-19994.84;5095150;28;20358;-59
2021/12/15 02:51:41;;;;;;;14.33;10.57;;;6.90;99.90;;;7.85;100.00;-19994.16;5094971;28;20830;-60
2021/12/15 02:54:12;;;;;;;13.50;10.20;;;7.00;99.90;;;7.77;100.00;-19991.44;5094855;28;20184;-60
2021/12/15 02:56:43;;;;;;;15.27;10.67;;;6.90;99.90;;;7.69;100.00;-19988.53;5094810;28;20220;-61
2021/12/15 02:59:14;;;;;;;16.40;10.70;;;7.00;99.90;;;7.72;100.00;-19989.56;5095194;28;20180;-61
2021/12/15 03:02:00;;;;;;;13.50;10.17;;;7.00;99.90;;;7.81;100.00;-19992.63;5094786;28;20311;-59
2021/12/15 03:04:39;;;;;;;13.87;9.90;;;7.00;99.90;;;7.88;100.00;-19995.03;5095018;28;20211;-60
2021/12/15 03:07:18;;;;;;;13.53;9.77;;;7.00;99.90;;;7.66;100.00;-19987.50;5094646;28;20196;-61
2021/12/15 03:15:29;;;;;;;14.37;9.90;;;6.90;99.90;;;7.65;100.00;-19987.34;5094608;28;20299;-61
2021/12/15 03:18:04;;;;;;;13.90;10.07;;;6.90;99.90;;;7.80;100.00;-19992.28;5094457;28;20286;-60
2021/12/15 03:20:46;;;;;;;15.90;10.33;;;6.90;99.90;;;7.67;100.00;-19988.00;5094601;28;20206;-61
2021/12/15 03:23:21;;;;;;;14.13;9.83;;;6.90;99.90;;;7.78;100.00;-19991.59;5094272;28;20204;-61
2021/12/15 03:25:49;;;;;;;13.30;9.27;;;6.90;99.90;;;7.66;100.00;-19987.66;5094592;28;20211;-60
2021/12/15 03:34:12;;;;;;;14.17;10.20;;;6.90;99.90;;;7.79;100.00;-19992.13;5093964;28;20259;-59
2021/12/15 03:37:08;;;;;;;15.03;9.70;;;6.90;99.90;;;7.86;100.00;-19994.34;5094185;28;20536;-60
2021/12/15 03:39:45;;;;;;;12.67;9.63;;;7.00;99.90;;;7.79;100.00;-19991.94;5094181;28;20192;-61
2021/12/15 03:42:17;;;;;;;14.43;10.83;;;6.90;99.90;;;7.67;100.00;-19988.00;5094186;28;20188;-60
2021/12/15 03:44:48;;;;;;;14.73;10.97;;;6.90;99.90;;;7.84;100.00;-19993.66;5094278;28;20204;-60
2021/12/15 03:47:22;;;;;;;16.40;10.17;;;6.90;99.90;;;7.80;100.00;-19992.28;5093774;28;20279;-61
2021/12/15 03:49:54;;;;;;;14.73;11.17;;;6.90;99.90;;;7.66;100.00;-19987.50;5094305;28;20267;-60
2021/12/15 03:52:23;;;;;;;14.93;10.73;;;6.90;99.90;;;7.68;100.00;-19988.34;5094167;28;20589;-62
2021/12/15 03:54:53;;;;;;;16.90;12.90;;;6.90;99.90;;;7.69;100.00;-19988.69;5093877;28;20275;-61
2021/12/15 03:57:22;;;;;;;15.07;10.00;;;6.90;99.90;;;7.58;100.00;-19984.78;5094026;28;20184;-60
2021/12/15 03:59:51;;;;;;;14.73;10.30;;;6.90;99.90;;;7.92;100.00;-19996.38;5093886;28;20211;-61
2021/12/15 04:02:20;;;;;;;13.97;9.93;;;6.90;99.90;;;7.65;100.00;-19987.16;5093578;28;20667;-61
2021/12/15 04:04:51;;;;;;;14.80;10.30;;;6.90;99.90;;;7.75;100.00;-19990.56;5093530;28;20314;-60
2021/12/15 04:07:22;;;;;;;13.17;8.93;;;6.90;99.90;;;7.71;100.00;-19989.38;5093658;28;20191;-60
2021/12/15 04:09:53;;;;;;;15.93;9.87;;;7.00;99.90;;;7.78;100.00;-19991.59;5093547;28;20227;-60
2021/12/15 04:12:22;;;;;;;14.87;10.00;;;6.90;99.90;;;7.73;100.00;-19989.91;5093599;28;20526;-62
2021/12/15 04:14:56;;;;;;;14.43;10.07;;;6.90;99.90;;;7.71;100.00;-19989.22;5093337;28;20204;-61
2021/12/15 04:17:30;;;;;;;13.27;8.97;;;6.90;99.90;;;7.72;100.00;-19989.72;5093670;28;20190;-61
2021/12/15 04:20:03;;;;;;;13.33;9.47;;;6.90;99.90;;;7.79;100.00;-19992.13;5093190;28;20192;-61
2021/12/15 04:22:32;;;;;;;14.03;9.80;;;7.00;99.90;;;7.97;100.00;-19998.09;5093713;28;20533;-61
2021/12/15 04:25:08;;;;;;;15.07;10.13;;;7.00;99.90;;;7.85;100.00;-19994.00;5093073;28;20219;-61
2021/12/15 04:27:36;;;;;;;12.30;9.33;;;7.00;99.90;;;7.92;100.00;-19996.56;5093636;28;20527;-61
2021/12/15 04:30:09;;;;;;;13.03;9.07;;;7.00;99.90;;;7.84;100.00;-19993.81;5093073;28;20287;-61
2021/12/15 04:32:45;;;;;;;12.60;9.27;;;7.00;99.90;;;7.94;100.00;-19997.25;5092370;28;20236;-60
2021/12/15 04:35:16;;;;;;;13.53;8.93;;;7.00;99.90;;;7.88;100.00;-19995.03;5093202;28;20183;-60
2021/12/15 04:37:47;;;;;;;13.33;9.40;;;7.00;99.90;;;7.84;100.00;-19993.66;5093071;28;20654;-61
2021/12/15 04:40:19;;;;;;;12.63;9.30;;;7.00;99.90;;;7.97;100.00;-19998.09;5092757;28;20577;-61
2021/12/15 04:42:48;;;;;;;11.87;8.83;;;7.00;99.90;;;7.93;100.00;-19996.72;5093013;28;20192;-61
2021/12/15 04:45:20;;;;;;;13.17;9.27;;;7.10;99.90;;;7.85;100.00;-19994.00;5092955;28;20230;-61
2021/12/15 04:47:51;;;;;;;11.57;9.00;;;7.10;99.90;;;7.89;100.00;-19995.53;5092742;28;20658;-61
2021/12/15 04:50:22;;;;;;;12.93;9.43;;;7.10;99.90;;;7.80;100.00;-19992.47;5093032;28;20184;-61
2021/12/15 04:52:52;;;;;;;11.63;8.90;;;7.10;99.90;;;8.00;100.00;-19999.13;5092747;28;20194;-60
2021/12/15 04:55:25;;;;;;;14.30;9.90;;;7.10;99.90;;;7.96;100.00;-19997.75;5092652;28;20195;-61
2021/12/15 04:57:53;;;;;;;11.23;8.77;;;7.10;99.90;;;7.78;100.00;-19991.78;5092855;28;20215;-61
2021/12/15 05:00:29;;;;;;;13.70;9.27;;;7.10;99.90;;;7.81;100.00;-19992.81;5092810;28;20262;-61
2021/12/15 05:02:59;;;;;;;13.10;9.17;;;7.10;99.90;;;7.74;100.00;-19990.22;5092463;28;20658;-61
2021/12/15 05:05:29;;;;;;;13.97;10.80;;;7.00;99.90;;;7.82;100.00;-19992.97;5092145;28;20659;-61
2021/12/15 05:07:58;;;;;;;14.13;9.67;;;7.00;99.90;;;7.77;100.00;-19991.44;5092388;28;20621;-60
2021/12/15 05:10:28;;;;;;;11.80;9.27;;;7.00;99.90;;;7.90;100.00;-19995.88;5092317;28;20283;-59
2021/12/15 05:12:57;;;;;;;13.87;9.63;;;7.00;99.90;;;7.94;100.00;-19997.06;5092843;28;20196;-62
2021/12/15 05:15:26;;;;;;;12.13;9.10;;;7.10;99.90;;;7.87;100.00;-19994.69;5092492;28;20196;-60
2021/12/15 05:17:55;;;;;;;14.83;9.60;;;7.10;99.90;;;7.84;100.00;-19993.81;5092504;28;20195;-60
2021/12/15 05:20:25;;;;;;;12.10;8.63;;;7.10;99.90;;;7.79;100.00;-19991.94;5092373;28;20795;-61
2021/12/15 05:22:55;;;;;;;12.83;9.23;;;7.10;99.90;;;7.86;100.00;-19994.34;5092780;28;20184;-60
2021/12/15 05:25:23;;;;;;;12.33;9.00;;;7.10;99.90;;;7.80;100.00;-19992.47;5092363;28;20239;-62
2021/12/15 05:27:53;;;;;;;11.63;8.77;;;7.10;99.90;;;7.80;100.00;-19992.28;5092480;28;20196;-60
2021/12/15 05:30:21;;;;;;;13.27;9.37;;;7.10;99.90;;;7.89;100.00;-19995.34;5092055;28;20206;-61
2021/12/15 05:32:50;;;;;;;13.47;9.03;;;7.10;99.90;;;8.24;100.00;-20007.50;5091683;28;20314;-60
2021/12/15 05:35:23;;;;;;;11.13;8.77;;;7.10;99.90;;;8.42;100.00;-20013.66;5092066;28;20616;-61
2021/12/15 05:37:54;;;;;;;11.03;9.07;;;7.20;99.90;;;8.11;100.00;-20002.88;5092161;28;20271;-60
2021/12/15 05:40:24;;;;;;;12.50;8.77;;;7.20;99.90;;;7.97;100.00;-19998.09;5091895;28;20659;-61
2021/12/15 05:42:56;;;;;;;11.60;8.53;;;7.20;99.90;;;7.91;100.00;-19996.03;5092006;28;20608;-61
2021/12/15 05:45:26;;;;;;;13.57;9.60;;;7.20;99.90;;;7.92;100.00;-19996.38;5094566;28;20875;-60
2021/12/15 05:47:55;;;;;;;12.10;8.70;;;7.20;99.90;;;7.84;100.00;-19993.81;5096007;28;20206;-60
2021/12/15 05:50:26;;;;;;;12.97;9.20;;;7.10;99.90;;;7.99;100.00;-19998.78;5095991;28;20549;-60
2021/12/15 05:52:55;;;;;;;14.13;9.13;;;7.10;99.90;;;8.09;100.00;-20002.19;5096081;28;20180;-61
2021/12/15 05:55:24;;;;;;;12.70;8.60;;;7.20;99.90;;;8.00;100.00;-19999.28;5095646;28;20685;-60
2021/12/15 05:57:53;;;;;;;15.80;9.57;;;7.10;99.90;;;7.90;100.00;-19995.72;5095957;28;20208;-61
2021/12/15 06:00:26;;;;;;;13.17;10.17;;;7.10;99.90;;;7.93;100.00;-19996.91;5096140;28;20283;-61
2021/12/15 06:02:55;;;;;;;18.97;11.37;;;7.10;99.90;;;8.08;100.00;-20001.84;5095810;28;20180;-60
2021/12/15 06:05:24;;;;;;;16.90;10.17;;;7.10;99.90;;;7.95;100.00;-19997.41;5095176;28;20216;-60
2021/12/15 06:07:53;;;;;;;16.13;10.50;;;7.10;99.90;;;7.95;100.00;-19997.41;5095901;28;20685;-60
2021/12/15 06:10:25;;;;;;;14.03;10.27;;;7.10;99.90;;;7.71;100.00;-19989.38;5095807;28;20202;-61
2021/12/15 06:12:56;;;;;;;16.87;11.20;;;7.00;99.90;;;7.67;100.00;-19987.84;5095758;28;20220;-60
2021/12/15 06:15:29;;;;;;;15.83;10.97;;;7.00;99.90;;;7.81;100.00;-19992.81;5096007;28;20264;-60
2021/12/15 06:18:01;;;;;;;16.17;10.43;;;7.00;99.90;;;7.86;100.00;-19994.50;5095627;28;20551;-61
2021/12/15 06:20:31;;;;;;;17.83;11.07;;;7.00;99.90;;;7.78;100.00;-19991.59;5095825;28;20231;-60
2021/12/15 06:23:05;;;;;;;15.17;10.27;;;7.00;99.90;;;7.70;100.00;-19988.88;5095951;28;20207;-61
2021/12/15 06:25:33;;;;;;;16.80;10.57;;;7.00;99.90;;;7.50;100.00;-19982.03;5095592;28;20204;-61
2021/12/15 06:28:04;;;;;;;15.57;10.60;;;6.90;99.90;;;7.49;100.00;-19981.69;5095408;28;20701;-61
2021/12/15 06:30:33;;;;;;;15.97;10.57;;;6.80;99.90;;;7.50;100.00;-19982.03;5095340;28;20627;-62
2021/12/15 06:33:01;;;;;;;17.77;11.50;;;6.70;99.90;;;7.26;100.00;-19974.19;5095067;28;20259;-61
2021/12/15 06:35:29;;;;;;;17.57;12.07;;;6.70;99.90;;;7.13;100.00;-19969.56;5095471;28;20218;-61
2021/12/15 06:37:58;;;;;;;16.73;11.13;;;6.60;99.90;;;7.21;100.00;-19972.47;5095492;28;20200;-61
2021/12/15 06:40:26;;;;;;;15.63;11.00;;;6.50;99.90;;;7.17;100.00;-19971.09;5095425;28;20204;-61
2021/12/15 06:42:54;;;;;;;16.77;11.47;;;6.50;99.90;;;7.12;100.00;-19969.38;5095492;28;20195;-62
2021/12/15 06:45:32;;;;;;;16.07;11.47;;;6.50;99.90;;;7.31;100.00;-19975.88;5094886;28;20216;-62
2021/12/15 06:59:04;;;;;;;17.37;11.10;;;6.70;99.90;;;7.60;100.00;-19985.44;5074965;28;20225;-59
2021/12/15 07:01:34;;;;;;;14.47;9.67;;;6.80;99.90;;;7.60;100.00;-19985.63;5076233;28;20894;-61
2021/12/15 07:04:02;;;;;;;14.40;10.80;;;6.80;99.90;;;7.60;100.00;-19985.63;5094995;28;20218;-60
2021/12/15 07:06:31;;;;;;;16.57;11.07;;;6.80;99.90;;;7.69;100.00;-19988.69;5094656;28;20222;-60
2021/12/15 07:08:59;;;;;;;13.53;9.63;;;6.80;99.90;;;7.70;100.00;-19989.03;5094650;28;20693;-60
2021/12/15 07:11:27;;;;;;;15.50;10.27;;;6.90;99.90;;;7.77;100.00;-19991.44;5094634;28;20564;-61
2021/12/15 07:13:56;;;;;;;14.30;9.90;;;6.90;99.90;;;7.70;100.00;-19988.88;5094527;28;20287;-61
2021/12/15 07:16:25;;;;;;;14.03;9.63;;;6.90;99.90;;;7.69;100.00;-19988.53;5094608;28;20335;-60
2021/12/15 07:19:06;;;;;;;13.73;9.57;;;6.90;99.90;;;7.79;100.00;-19991.94;5094495;28;20765;-60
2021/12/15 07:21:38;;;;;;;15.30;9.50;;;6.90;99.90;;;7.81;100.00;-19992.63;5094441;28;20665;-62
2021/12/15 07:24:08;;;;;;;12.77;8.87;;;7.00;99.90;;;7.77;100.00;-19991.25;5094653;28;20191;-61
2021/12/15 07:26:37;;;;;;;13.50;10.07;;;7.00;99.90;;;7.69;100.00;-19988.69;5093666;28;20556;-61
2021/12/15 07:29:05;;;;;;;14.23;9.67;;;7.00;99.90;;;7.80;100.00;-19992.47;5094324;28;20210;-61
2021/12/15 07:31:33;;;;;;;16.37;11.33;;;7.00;99.90;;;8.00;100.00;-19999.28;5094452;28;20211;-61
2021/12/15 07:34:04;;;;;;;14.83;10.10;;;7.00;99.90;;;7.87;100.00;-19994.84;5093751;28;20202;-61
2021/12/15 07:36:32;;;;;;;15.17;11.13;;;7.00;99.90;;;7.99;100.00;-19998.78;5094349;28;20502;-60
2021/12/15 07:39:00;;;;;;;16.77;11.57;;;7.10;99.90;;;8.07;100.00;-20001.69;5094595;28;20200;-60
2021/12/15 07:41:35;;;;;;;15.93;10.27;;;7.10;99.90;;;8.11;100.00;-20002.88;5093883;28;20569;-61
2021/12/15 07:44:05;;;;;;;15.80;9.73;;;7.10;99.90;;;8.09;100.00;-20002.19;5094507;28;20192;-61
2021/12/15 07:46:50;;;;;;;15.33;10.23;;;7.10;99.90;;;8.26;100.00;-20008.19;5093738;28;20215;-61
2021/12/15 07:49:22;;;;;;;12.50;9.17;;;7.20;99.90;;;8.11;100.00;-20003.06;5094104;28;20284;-61
2021/12/15 07:51:59;;;;;;;12.90;9.40;;;7.20;99.90;;;8.19;100.00;-20005.59;5093917;28;20227;-61
2021/12/15 07:54:28;;;;;;;13.70;9.27;;;7.30;99.90;;;8.25;100.00;-20007.84;5094196;28;20180;-62
2021/12/15 07:56:56;;;;;;;12.10;8.67;;;7.30;99.90;;;8.31;100.00;-20009.72;5093331;28;20635;-64
2021/12/15 07:59:25;;;;;;;13.90;9.50;;;7.30;99.90;;;8.20;100.00;-20006.13;5078115;28;20220;-64
2021/12/15 08:01:53;;;;;;;15.97;8.97;;;7.40;99.90;;;8.20;100.00;-20005.97;5072750;28;20281;-64
2021/12/15 08:04:23;;;;;;;12.97;9.43;;;7.30;99.90;;;8.52;100.00;-20016.91;5073439;28;20212;-64
2021/12/15 08:06:52;;;;;;;11.73;9.13;;;7.40;99.90;;;8.48;100.00;-20015.69;5088279;28;20354;-64
2021/12/15 08:09:22;;;;;;;13.40;9.63;;;7.40;99.90;;;8.30;100.00;-20009.38;5087029;28;20201;-61
2021/12/15 08:11:51;;;;;;;11.80;8.80;;;7.40;99.90;;;8.21;100.00;-20006.28;5070358;28;20191;-63
2021/12/15 08:14:19;;;;;;;12.33;8.90;;;7.40;99.90;;;8.17;100.00;-20005.09;5070308;28;20200;-61
2021/12/15 08:16:48;;;;;;;12.00;8.27;;;7.40;99.90;;;8.28;100.00;-20008.69;5070331;28;20287;-61
2021/12/15 08:19:18;;;;;;;12.03;8.53;;;7.40;99.90;;;8.16;100.00;-20004.75;5070505;28;20200;-60
2021/12/15 08:21:48;;;;;;;13.03;8.97;;;7.30;99.90;;;8.09;100.00;-20002.38;5070144;28;20210;-64
2021/12/15 08:24:16;;;;;;;11.77;8.20;;;7.30;99.90;;;8.32;100.00;-20010.06;5070686;28;20304;-63
2021/12/15 08:26:45;;;;;;;12.30;8.60;;;7.40;99.90;;;8.32;100.00;-20010.06;5070684;28;20252;-64
2021/12/15 08:29:14;;;;;;;11.07;7.90;;;7.40;99.90;;;8.28;100.00;-20008.88;5070553;28;20268;-61
2021/12/15 08:31:43;;;;;;;14.80;8.67;;;7.40;99.90;;;8.28;100.00;-20008.88;5069951;28;20197;-61
2021/12/15 08:34:11;;;;;;;12.87;8.93;;;7.40;99.90;;;8.31;100.00;-20009.72;5070338;28;20276;-61
2021/12/15 08:36:41;;;;;;;10.73;8.20;;;7.40;99.90;;;8.38;100.00;-20012.09;5070026;28;20197;-61
2021/12/15 08:39:11;;;;;;;12.27;8.40;;;7.40;99.90;;;8.38;100.00;-20012.28;5070092;28;20243;-63
2021/12/15 08:41:40;;;;;;;12.40;8.57;;;7.50;99.90;;;8.30;100.00;-20009.53;5069739;28;20230;-63
2021/12/15 08:44:10;;;;;;;11.87;8.43;;;7.50;99.90;;;8.24;100.00;-20007.31;5069946;28;20243;-62
2021/12/15 08:46:43;;;;;;;11.97;8.57;;;7.50;99.90;;;8.59;100.00;-20019.28;5069517;28;20220;-62
2021/12/15 08:49:16;;;;;;;13.67;8.53;;;7.60;99.90;;;8.60;100.00;-20019.63;5069356;28;20251;-62
2021/12/15 08:51:45;;;;;;;13.60;9.40;;;7.60;99.90;;;8.47;100.00;-20015.34;5069906;28;20276;-61
2021/12/15 08:54:20;;;;;;;12.10;9.17;;;7.60;99.90;;;8.45;100.00;-20014.69;5073160;28;20290;-62
2021/12/15 08:56:51;;;;;;;11.37;8.10;;;7.60;99.90;;;8.72;100.00;-20023.56;5089769;28;20180;-62
2021/12/15 08:59:19;;;;;;;12.53;9.20;;;7.70;99.90;;;8.52;100.00;-20017.06;5090056;28;20211;-61
2021/12/15 09:01:48;;;;;;;13.13;9.10;;;7.70;99.90;;;8.66;100.00;-20021.69;5089593;28;20706;-61
2021/12/15 09:04:18;;;;;;;10.40;8.60;;;7.70;99.90;;;8.65;100.00;-20021.34;5089575;28;20188;-60
2021/12/15 09:06:49;;;;;;;11.83;8.60;;;7.70;99.90;;;8.55;100.00;-20017.91;5075802;28;20231;-61
2021/12/15 09:09:21;;;;;;;11.63;8.60;;;7.70;99.90;;;8.53;100.00;-20017.41;5069747;28;20189;-62
2021/12/15 09:11:52;;;;;;;11.43;7.77;;;7.60;99.90;;;8.48;100.00;-20015.53;5069498;28;20181;-61
2021/12/15 09:14:21;;;;;;;10.77;7.57;;;7.60;99.90;;;8.55;100.00;-20017.91;5069133;28;20667;-60
2021/12/15 09:16:54;;;;;;;10.77;7.93;;;7.70;99.90;;;8.54;100.00;-20017.59;5072406;28;20279;-60
2021/12/15 09:19:24;;;;;;;11.80;7.90;;;7.70;99.90;;;8.61;100.00;-20019.97;5089180;28;20272;-68
2021/12/15 09:21:55;;;;;;;10.30;7.87;;;7.70;99.90;;;8.68;100.00;-20022.34;5089270;28;20766;-64
2021/12/15 09:24:26;;;;;;;9.93;7.70;;;7.70;99.90;;;8.76;100.00;-20024.94;5089298;28;20188;-62
2021/12/15 09:26:55;;;;;;;9.50;6.90;;;7.80;99.90;;;8.64;100.00;-20021.00;5089312;28;20204;-62
2021/12/15 09:29:24;;;;;;;10.93;7.30;;;7.80;99.90;;;8.76;100.00;-20025.09;5089253;28;20215;-66
2021/12/15 09:31:54;;;;;;;9.10;7.07;;;7.80;99.90;;;8.87;100.00;-20028.84;5089086;28;20202;-64
2021/12/15 09:34:23;;;;;;;9.73;7.37;;;7.90;99.90;;;8.72;100.00;-20023.72;5089143;28;20219;-63
2021/12/15 09:36:55;;;;;;;10.07;7.30;;;7.80;99.90;;;8.84;100.00;-20027.66;5089287;28;20314;-63
2021/12/15 09:39:26;;;;;;;10.03;7.53;;;7.90;99.90;;;8.88;100.00;-20029.03;5089182;28;20287;-63
2021/12/15 09:42:19;;;;;;;10.33;6.60;;;7.90;99.90;;;8.92;100.00;-20030.56;5088945;28;20215;-65
2021/12/15 09:44:51;;;;;;;9.83;6.97;;;7.90;99.90;;;8.94;100.00;-20031.25;5089170;28;20278;-64
2021/12/15 09:47:38;;;;;;;9.90;7.23;;;7.90;99.90;;;8.80;100.00;-20026.47;5089105;28;20303;-61
2021/12/15 10:04:22;;;;;;;8.73;6.77;;;7.90;99.90;;;8.81;100.00;-20026.81;5068689;28;20181;-64
2021/12/15 10:07:16;;;;;;;9.87;7.20;;;7.90;99.90;;;9.01;100.00;-20033.47;5085227;28;20204;-67
2021/12/15 10:18:31;;;;;;;9.83;7.73;;;8.20;99.90;;;9.18;100.00;-20039.28;5065718;28;20217;-70
2021/12/15 10:21:01;;;;;;;10.63;7.93;;;8.10;99.90;;;9.16;100.00;-20038.75;5089073;28;20180;-68
2021/12/15 10:23:37;;;;;;;10.37;7.13;;;8.20;99.90;;;9.18;100.00;-20039.44;5088647;28;20181;-67
2021/12/15 10:26:08;;;;;;;10.17;7.67;;;8.10;99.90;;;9.24;100.00;-20041.50;5087326;28;20203;-67
2021/12/15 10:28:42;;;;;;;8.97;6.97;;;8.20;99.90;;;9.52;100.00;-20050.91;5088117;28;20185;-68
2021/12/15 10:31:14;;;;;;;10.33;7.17;;;8.30;99.90;;;9.54;100.00;-20051.56;5089915;28;20523;-69
2021/12/15 10:33:47;;;;;;;9.70;7.13;;;8.40;99.90;;;9.62;100.00;-20054.47;5091227;28;20351;-68
2021/12/15 10:36:19;;;;;;;9.30;7.23;;;8.40;99.90;;;9.47;100.00;-20049.34;5091731;28;20722;-68
2021/12/15 10:38:52;;;;;;;10.47;6.97;;;8.50;99.90;;;9.61;100.00;-20054.13;5092482;28;20198;-67
2021/12/15 10:41:25;;;;;;;10.17;7.37;;;8.50;99.90;;;9.68;100.00;-20056.53;5091954;28;20620;-69
2021/12/15 10:43:59;;;;;;;9.90;7.23;;;8.60;99.90;;;9.82;100.00;-20061.31;5092305;28;20184;-68
2021/12/15 10:46:33;;;;;;;8.97;7.33;;;8.70;99.90;;;9.82;100.00;-20061.13;5091616;28;20220;-69
2021/12/15 10:49:08;;;;;;;8.83;7.53;;;8.70;99.90;;;9.77;100.00;-20059.59;5092393;28;20184;-64
2021/12/15 10:51:43;;;;;;;9.20;7.07;;;8.70;99.90;;;9.71;100.00;-20057.56;5092198;28;20267;-67
2021/12/15 10:54:16;;;;;;;9.43;7.33;;;8.70;99.90;;;9.70;100.00;-20057.22;5092160;28;20211;-67
2021/12/15 10:56:54;;;;;;;9.40;7.70;;;8.70;99.90;;;9.84;100.00;-20061.81;5091670;28;20183;-68
2021/12/15 10:59:27;;;;;;;10.80;7.43;;;8.70;99.90;;;9.74;100.00;-20058.56;5077527;28;20207;-73
2021/12/15 11:02:00;;;;;;;11.17;8.27;;;8.80;99.90;;;9.96;100.00;-20065.94;5071498;28;20656;-67
2021/12/15 11:04:36;;;;;;;10.83;7.23;;;8.80;99.90;;;9.88;100.00;-20063.03;5071509;28;20189;-70
2021/12/15 11:07:20;;;;;;;10.60;7.40;;;8.80;99.90;;;9.99;100.00;-20066.78;5090689;28;20210;-69
2021/12/15 11:09:57;;;;;;;8.57;7.20;;;8.90;99.90;;;10.13;100.00;-20071.56;5091704;28;20228;-70
2021/12/15 11:12:30;;;;;;;9.40;7.70;;;9.00;99.90;;;10.12;100.00;-20071.22;5091667;28;20237;-69
2021/12/15 11:15:05;;;;;;;8.03;7.00;;;9.10;99.90;;;10.17;100.00;-20072.94;5091581;28;20271;-71
2021/12/15 11:17:37;;;;;;;9.37;7.10;;;9.10;99.90;;;10.30;100.00;-20077.38;5091288;28;20274;-63
2021/12/15 11:20:15;;;;;;;9.27;7.20;;;9.20;99.90;;;10.22;100.00;-20074.81;5091141;28;20195;-63
2021/12/15 11:23:01;;;;;;;9.30;6.77;;;9.20;99.90;;;10.27;100.00;-20076.34;5091544;28;20275;-64
2021/12/15 11:25:41;;;;;;;8.20;6.57;;;9.30;99.90;;;10.36;100.00;-20079.41;5090974;28;20212;-65
2021/12/15 11:28:19;;;;;;;7.97;6.33;;;9.30;99.90;;;10.29;100.00;-20077.19;5091439;28;20307;-65